Guiding, China
Current Conditions -  °F | °C
As of 12:00 PM on Tuesday 21 Oct 2014 (Local Time) from ZUGY Reporting Station
Broken Clouds Broken Clouds  
Wind Chill: 68°   Ceiling: 2500
Heat Index: 68°   Visibility: 6mi
Dew Point: 57°   Wind: 7mph
Humidity: 68%   Direction: 360°N
Pressure: 30.27"   Gusts: NA
Location:  26.57°N, 107.23°E
Report Text: ZUGY 210400Z 36003MPS 300V100 9999 BKN025 20/14 Q1025 NOSIG
Loading
Personal Weather Stations






























Interactive Weather Map
Tropical Storm Tracking
New forecast layout! Learn more

10-Day Weather Forecast

Advertisements
Track Severe Weather on mobile